Disclaimer

Please do not use the information listed here in-flight or in-navigation, as they are not provided to us by the airports but are provided by volunteers, so they might be outdated.

Search


Regions


Airport information page

No radio frequency information is available.

Airport informations:
Latitude: 17° 26' 20.88" N
Longitude: 101° 43' 19.43" E
Elevation: 860 feet - 262 meters
Operating hours: From sunrise to sunset (SR-SS)
Operating agency: Civil government, landing fees and diplomatic clearance may be required
Timezone: UTC+7
Fuel: N/A

Runway information:
01/19 - 6890 x 148 feet< - >2100 x 45 meters

Recent METARs:
VTUL 171800Z 00000KT 9999 FEW030 23/22 Q1013 NOSIG
VTUL 171800Z 00000KT 9999 FEW030 23/22 Q1013 NOSIG
VTUL 171800Z 00000KT 9999 FEW030 23/22 Q1013 NOSIG

Airport on the map: